createdAt,value
2023-04-02T00:01:55.525Z,100659.59
2023-04-02T00:04:23.751Z,100654.50
2023-04-02T00:07:15.468Z,100657.06
2023-04-02T00:09:42.545Z,100645.94
2023-04-02T00:12:19.055Z,100656.22
2023-04-02T00:14:48.328Z,100654.47
2023-04-02T00:17:15.571Z,100648.47
2023-04-02T00:19:54.605Z,100649.31
2023-04-02T00:22:27.078Z,100639.84
2023-04-02T00:24:56.192Z,100648.44
2023-04-02T00:27:23.921Z,100648.47
2023-04-02T00:29:55.721Z,100644.19
2023-04-02T00:32:27.512Z,100646.75
2023-04-02T00:34:55.741Z,100648.53
2023-04-02T00:37:27.623Z,100652.84
2023-04-02T00:40:16.766Z,100647.69
2023-04-02T00:42:44.910Z,100640.78
2023-04-02T00:45:23.805Z,100641.63
2023-04-02T00:47:52.067Z,100639.06
2023-04-02T00:50:25.261Z,100642.50
2023-04-02T00:52:54.651Z,100649.31
2023-04-02T00:55:33.338Z,100651.00
2023-04-02T00:58:01.979Z,100653.53
2023-04-02T01:00:34.850Z,100655.22
2023-04-02T01:03:36.498Z,100649.19
2023-04-02T01:06:18.837Z,100648.41
2023-04-02T01:09:12.222Z,100644.06
2023-04-02T01:12:03.580Z,100650.91
2023-04-02T01:15:08.332Z,100652.56
2023-04-02T01:17:49.088Z,100650.03
2023-04-02T01:21:09.412Z,100652.63
2023-04-02T01:23:52.944Z,100649.13
2023-04-02T01:26:47.961Z,100656.88
2023-04-02T01:29:24.633Z,100646.59
2023-04-02T01:31:53.957Z,100646.59
2023-04-02T01:34:25.261Z,100641.44
2023-04-02T01:37:13.648Z,100639.72
2023-04-02T01:40:06.346Z,100644.84
2023-04-02T01:43:03.874Z,100639.69
2023-04-02T01:45:31.094Z,100643.13
2023-04-02T01:47:59.228Z,100637.94
2023-04-02T01:50:31.910Z,100639.63
2023-04-02T01:53:12.006Z,100636.22
2023-04-02T01:55:38.978Z,100633.63
2023-04-02T01:58:06.970Z,100640.50
2023-04-02T02:00:36.338Z,100635.34
2023-04-02T02:03:06.356Z,100627.59
2023-04-02T02:05:33.842Z,100630.16
2023-04-02T02:08:01.429Z,100634.50
2023-04-02T02:10:39.900Z,100640.47
2023-04-02T02:13:06.898Z,100645.63
2023-04-02T02:15:36.453Z,100645.56
2023-04-02T02:18:05.967Z,100647.31
2023-04-02T02:20:34.514Z,100640.41
2023-04-02T02:23:03.929Z,100647.28
2023-04-02T02:25:33.645Z,100652.44
2023-04-02T02:28:03.687Z,100650.69
2023-04-02T02:30:33.359Z,100648.94
2023-04-02T02:33:07.032Z,100648.09
2023-04-02T02:36:05.568Z,100647.13
2023-04-02T02:38:54.105Z,100655.69
2023-04-02T02:41:37.136Z,100653.09
2023-04-02T02:44:14.574Z,100665.09
2023-04-02T02:46:45.010Z,100665.09
2023-04-02T02:49:17.986Z,100661.66
2023-04-02T02:51:50.165Z,100669.34
2023-04-02T02:54:26.369Z,100675.34
2023-04-02T02:57:00.407Z,100679.66
2023-04-02T02:59:31.006Z,100680.47
2023-04-02T03:02:00.701Z,100677.03
2023-04-02T03:04:30.700Z,100676.19
2023-04-02T03:06:58.910Z,100682.19
2023-04-02T03:09:47.144Z,100686.47
2023-04-02T03:12:37.069Z,100687.31
2023-04-02T03:15:19.540Z,100688.03
2023-04-02T03:18:22.768Z,100690.56
2023-04-02T03:20:52.128Z,100688.81
2023-04-02T03:23:41.036Z,100684.50
2023-04-02T03:26:25.891Z,100682.78
2023-04-02T03:29:23.566Z,100675.91
2023-04-02T03:32:12.334Z,100687.91
2023-04-02T03:35:00.418Z,100679.31
2023-04-02T03:37:38.587Z,100680.16
2023-04-02T03:40:10.322Z,100681.00
2023-04-02T03:42:44.673Z,100664.34
2023-04-02T03:45:37.241Z,100665.03
2023-04-02T03:48:31.463Z,100661.31
2023-04-02T03:51:19.168Z,100657.94
2023-04-02T03:53:47.321Z,100665.72
2023-04-02T03:56:29.069Z,100664.09
2023-04-02T03:59:11.108Z,100659.03
2023-04-02T04:01:45.904Z,100658.19
2023-04-02T04:04:18.125Z,100657.25
2023-04-02T04:06:49.527Z,100665.94
2023-04-02T04:09:37.028Z,100666.78
2023-04-02T04:12:16.743Z,100666.78
2023-04-02T04:14:49.614Z,100670.25
2023-04-02T04:17:34.796Z,100666.75
2023-04-02T04:20:15.963Z,100677.78
2023-04-02T04:22:43.594Z,100685.47
2023-04-02T04:25:29.718Z,100678.53
2023-04-02T04:28:09.233Z,100678.25
2023-04-02T04:31:04.010Z,100686.75
2023-04-02T04:33:41.849Z,100688.44
2023-04-02T04:36:27.923Z,100683.22
2023-04-02T04:39:07.618Z,100690.91
2023-04-02T04:41:39.213Z,100706.31
2023-04-02T04:44:38.226Z,100706.25
2023-04-02T04:47:16.313Z,100706.72
2023-04-02T04:49:49.183Z,100707.53
2023-04-02T04:52:28.233Z,100709.13
2023-04-02T04:55:03.570Z,100703.91
2023-04-02T04:57:37.048Z,100700.31
2023-04-02T05:00:27.598Z,100711.63
2023-04-02T05:03:04.397Z,100716.88
2023-04-02T05:05:36.627Z,100712.34
2023-04-02T05:08:17.419Z,100709.59
2023-04-02T05:10:51.073Z,100706.06
2023-04-02T05:13:28.971Z,100708.56
2023-04-02T05:16:17.940Z,100708.75
2023-04-02T05:18:59.093Z,100709.63
2023-04-02T05:21:44.024Z,100702.03
2023-04-02T05:24:44.256Z,100701.28
2023-04-02T05:27:45.167Z,100697.81
2023-04-02T05:30:24.172Z,100696.69
2023-04-02T05:32:57.474Z,100698.22
2023-04-02T05:35:34.276Z,100696.56
2023-04-02T05:38:02.461Z,100696.56
2023-04-02T05:40:44.506Z,100698.44
2023-04-02T05:43:17.352Z,100695.16
2023-04-02T05:45:52.136Z,100696.84
2023-04-02T05:48:25.547Z,100698.59
2023-04-02T05:50:55.998Z,100697.75
2023-04-02T05:53:36.271Z,100705.41
2023-04-02T05:56:16.482Z,100712.28
2023-04-02T05:58:48.189Z,100713.25
2023-04-02T06:01:37.670Z,100721.09
2023-04-02T06:04:45.248Z,100717.56
2023-04-02T06:07:32.610Z,100720.09
2023-04-02T06:10:18.671Z,100720.88
2023-04-02T06:12:58.221Z,100729.53
2023-04-02T06:15:26.091Z,100728.84
2023-04-02T06:18:13.767Z,100733.22
2023-04-02T06:20:41.946Z,100733.44
2023-04-02T06:23:23.745Z,100741.25
2023-04-02T06:26:03.626Z,100737.94
2023-04-02T06:28:46.629Z,100743.13
2023-04-02T06:31:30.658Z,100740.59
2023-04-02T06:33:57.947Z,100748.28
2023-04-02T06:36:30.293Z,100759.50
2023-04-02T06:39:07.757Z,100761.25
2023-04-02T06:41:35.337Z,100760.41
2023-04-02T06:44:28.316Z,100761.22
2023-04-02T06:47:29.700Z,100768.00
2023-04-02T06:50:06.410Z,100765.63
2023-04-02T06:52:39.024Z,100767.41
2023-04-02T06:55:20.666Z,100767.53
2023-04-02T06:57:48.672Z,100772.84
2023-04-02T07:00:33.739Z,100780.66
2023-04-02T07:03:05.136Z,100785.88
2023-04-02T07:05:32.046Z,100784.25
2023-04-02T07:07:59.052Z,100785.16
2023-04-02T07:10:26.301Z,100777.63
2023-04-02T07:12:53.068Z,100789.72
2023-04-02T07:15:24.079Z,100793.19
2023-04-02T07:17:52.215Z,100792.38
2023-04-02T07:20:29.941Z,100790.72
2023-04-02T07:22:59.796Z,100780.53
2023-04-02T07:25:27.347Z,100799.44
2023-04-02T07:27:55.203Z,100791.84
2023-04-02T07:30:22.043Z,100793.81
2023-04-02T07:32:49.284Z,100795.56
2023-04-02T07:35:16.180Z,100792.31
2023-04-02T07:37:43.108Z,100790.69
2023-04-02T07:40:19.205Z,100800.25
2023-04-02T07:42:46.116Z,100809.75
2023-04-02T07:45:13.866Z,100802.00
2023-04-02T07:47:40.869Z,100805.47
2023-04-02T07:50:08.604Z,100808.94
2023-04-02T07:52:40.647Z,100820.25
2023-04-02T07:55:08.440Z,100822.84
2023-04-02T07:57:39.126Z,100827.09
2023-04-02T08:00:07.838Z,100824.59
2023-04-02T08:02:39.196Z,100830.59
2023-04-02T08:05:09.059Z,100838.38
2023-04-02T08:07:36.631Z,100837.56
2023-04-02T08:10:09.488Z,100832.56
2023-04-02T08:12:36.689Z,100848.22
2023-04-02T08:15:06.029Z,100842.25
2023-04-02T08:17:33.661Z,100844.75
2023-04-02T08:20:01.876Z,100862.84
2023-04-02T08:22:29.795Z,100863.78
2023-04-02T08:24:57.219Z,100863.69
2023-04-02T08:27:25.313Z,100865.28
2023-04-02T08:29:52.281Z,100867.81
2023-04-02T08:32:19.059Z,100864.28
2023-04-02T08:34:46.825Z,100870.38
2023-04-02T08:37:14.269Z,100866.94
2023-04-02T08:39:41.654Z,100870.34
2023-04-02T08:42:26.677Z,100860.97
2023-04-02T08:45:25.125Z,100865.22
2023-04-02T08:47:56.703Z,100860.06
2023-04-02T08:50:39.486Z,100855.84
2023-04-02T08:53:21.977Z,100862.03
2023-04-02T08:55:55.898Z,100853.41
2023-04-02T08:58:28.556Z,100858.53
2023-04-02T09:00:56.387Z,100856.78
2023-04-02T09:03:36.093Z,100860.94
2023-04-02T09:06:03.929Z,100854.94
2023-04-02T09:08:32.666Z,100849.81
2023-04-02T09:11:23.678Z,100846.59
2023-04-02T09:14:03.148Z,100843.25
2023-04-02T09:16:49.983Z,100839.75
2023-04-02T09:19:19.683Z,100840.66
2023-04-02T09:22:05.681Z,100839.78
2023-04-02T09:24:33.438Z,100835.53
2023-04-02T09:27:00.444Z,100844.22
2023-04-02T09:29:49.458Z,100835.69
2023-04-02T09:32:28.175Z,100841.69
2023-04-02T09:35:14.977Z,100833.19
2023-04-02T09:38:20.646Z,100842.66
2023-04-02T09:40:47.609Z,100839.25
2023-04-02T09:43:17.550Z,100836.72
2023-04-02T09:45:59.937Z,100844.50
2023-04-02T09:48:32.708Z,100847.09
2023-04-02T09:51:11.507Z,100851.41
2023-04-02T09:54:03.756Z,100850.59
2023-04-02T09:56:32.406Z,100847.16
2023-04-02T09:59:06.665Z,100854.91
2023-04-02T10:01:39.484Z,100845.44
2023-04-02T10:04:27.436Z,100849.75
2023-04-02T10:06:58.051Z,100853.19
2023-04-02T10:09:33.974Z,100853.19
2023-04-02T10:12:04.439Z,100851.50
2023-04-02T10:14:40.055Z,100856.63
2023-04-02T10:17:18.452Z,100843.75
2023-04-02T10:20:01.251Z,100848.06
2023-04-02T10:22:28.824Z,100848.81
2023-04-02T10:24:58.110Z,100847.09
2023-04-02T10:28:03.535Z,100853.94
2023-04-02T10:31:00.727Z,100851.25
2023-04-02T10:33:33.209Z,100852.84
2023-04-02T10:36:39.520Z,100857.09
2023-04-02T10:39:15.877Z,100849.25
2023-04-02T10:41:48.321Z,100844.97
2023-04-02T10:44:40.178Z,100844.88
2023-04-02T10:47:27.306Z,100845.66
2023-04-02T10:50:07.572Z,100845.59
2023-04-02T10:52:48.290Z,100850.78
2023-04-02T10:55:23.976Z,100850.78
2023-04-02T10:57:54.316Z,100851.72
2023-04-02T11:00:35.231Z,100848.25
2023-04-02T11:03:07.396Z,100844.84
2023-04-02T11:05:47.454Z,100843.19
2023-04-02T11:08:23.934Z,100846.63
2023-04-02T11:10:57.071Z,100840.50
2023-04-02T11:13:43.596Z,100838.81
2023-04-02T11:16:15.615Z,100831.88
2023-04-02T11:19:03.085Z,100833.63
2023-04-02T11:21:51.125Z,100829.41
2023-04-02T11:24:31.811Z,100822.56
2023-04-02T11:27:10.510Z,100826.84
2023-04-02T11:29:58.671Z,100825.16
2023-04-02T11:32:27.745Z,100829.50
2023-04-02T11:35:06.668Z,100832.94
2023-04-02T11:37:43.993Z,100839.81
2023-04-02T11:40:16.569Z,100843.28
2023-04-02T11:42:48.122Z,100850.25
2023-04-02T11:45:21.348Z,100854.59
2023-04-02T11:48:17.572Z,100852.09
2023-04-02T11:50:46.272Z,100861.59
2023-04-02T11:53:15.910Z,100861.69
2023-04-02T11:55:46.041Z,100860.88
2023-04-02T11:58:24.766Z,100864.31
2023-04-02T12:01:11.872Z,100861.78
2023-04-02T12:03:38.714Z,100865.22
2023-04-02T12:06:18.848Z,100855.78
2023-04-02T12:09:04.874Z,100852.25
2023-04-02T12:11:40.119Z,100857.41
2023-04-02T12:14:38.529Z,100859.13
2023-04-02T12:17:34.832Z,100860.81
2023-04-02T12:20:10.647Z,100852.19
2023-04-02T12:22:48.358Z,100847.81
2023-04-02T12:25:21.693Z,100856.38
2023-04-02T12:27:48.962Z,100851.22
2023-04-02T12:30:23.501Z,100851.22
2023-04-02T12:32:50.526Z,100848.66
2023-04-02T12:35:45.664Z,100850.38
2023-04-02T12:38:23.163Z,100848.63
2023-04-02T12:40:58.759Z,100853.75
2023-04-02T12:43:34.631Z,100853.00
2023-04-02T12:46:05.460Z,100849.56
2023-04-02T12:48:33.506Z,100846.97
2023-04-02T12:51:01.444Z,100844.38
2023-04-02T12:53:37.881Z,100840.94
2023-04-02T12:56:05.906Z,100840.13
2023-04-02T12:58:35.789Z,100832.34
2023-04-02T13:01:13.433Z,100834.91
2023-04-02T13:03:40.896Z,100838.34
2023-04-02T13:06:37.373Z,100841.78
2023-04-02T13:09:07.413Z,100837.56
2023-04-02T13:11:39.731Z,100831.56
2023-04-02T13:14:16.193Z,100825.72
2023-04-02T13:16:43.224Z,100826.59
2023-04-02T13:19:31.539Z,100829.16
2023-04-02T13:22:01.226Z,100824.00
2023-04-02T13:24:32.743Z,100821.44
2023-04-02T13:27:01.869Z,100817.13
2023-04-02T13:29:36.087Z,100807.63
2023-04-02T13:32:11.762Z,100808.53
2023-04-02T13:34:38.696Z,100804.22
2023-04-02T13:37:05.495Z,100803.38
2023-04-02T13:39:32.335Z,100805.06
2023-04-02T13:42:02.487Z,100799.03
2023-04-02T13:44:34.500Z,100798.19
2023-04-02T13:47:01.531Z,100793.03
2023-04-02T13:49:29.550Z,100787.00
2023-04-02T13:52:05.048Z,100786.97
2023-04-02T13:54:45.412Z,100782.66
2023-04-02T13:57:12.595Z,100774.81
2023-04-02T13:59:39.459Z,100776.50
2023-04-02T14:02:14.296Z,100779.94
2023-04-02T14:04:50.783Z,100770.41
2023-04-02T14:07:50.281Z,100768.66
2023-04-02T14:10:34.555Z,100773.78
2023-04-02T14:13:18.072Z,100781.50
2023-04-02T14:15:47.667Z,100778.97
2023-04-02T14:18:41.296Z,100778.91
2023-04-02T14:21:22.160Z,100792.72
2023-04-02T14:24:07.893Z,100791.06
2023-04-02T14:26:39.838Z,100793.69
2023-04-02T14:29:23.876Z,100800.75
2023-04-02T14:32:04.876Z,100794.75
2023-04-02T14:34:34.738Z,100803.34
2023-04-02T14:37:33.338Z,100812.84
2023-04-02T14:40:21.478Z,100817.97
2023-04-02T14:42:58.462Z,100823.09
2023-04-02T14:45:40.129Z,100835.06
2023-04-02T14:48:18.874Z,100828.19
2023-04-02T14:50:45.742Z,100821.25
2023-04-02T14:53:21.246Z,100823.81
2023-04-02T14:55:51.957Z,100828.13
2023-04-02T14:58:27.660Z,100824.66
2023-04-02T15:01:09.674Z,100828.94
2023-04-02T15:03:44.222Z,100834.97
2023-04-02T15:06:16.144Z,100831.53
2023-04-02T15:09:02.218Z,100819.50
2023-04-02T15:11:40.748Z,100832.38
2023-04-02T15:14:07.473Z,100834.97
2023-04-02T15:16:36.627Z,100838.41
2023-04-02T15:19:10.116Z,100837.53
2023-04-02T15:22:14.323Z,100836.69
2023-04-02T15:25:12.270Z,100837.56
2023-04-02T15:28:01.966Z,100847.00
2023-04-02T15:30:39.302Z,100859.91
2023-04-02T15:33:27.520Z,100869.31
2023-04-02T15:36:16.324Z,100876.22
2023-04-02T15:38:45.127Z,100878.84
2023-04-02T15:41:27.562Z,100886.56
2023-04-02T15:44:06.188Z,100894.28
2023-04-02T15:46:35.838Z,100903.78
2023-04-02T15:49:14.758Z,100902.06
2023-04-02T15:52:01.757Z,100911.53
2023-04-02T15:54:53.064Z,100923.59
2023-04-02T15:57:55.589Z,100932.22
2023-04-02T16:01:24.163Z,100949.44
2023-04-02T16:04:19.780Z,100949.38
2023-04-02T16:07:01.714Z,100959.63
2023-04-02T16:10:04.358Z,100973.31
2023-04-02T16:12:34.911Z,100979.25
2023-04-02T16:15:18.111Z,100982.66
2023-04-02T16:17:51.611Z,100983.50
2023-04-02T16:20:40.306Z,100998.94
2023-04-02T16:23:22.378Z,100985.19
2023-04-02T16:26:06.397Z,100987.75
2023-04-02T16:28:57.421Z,100985.94
2023-04-02T16:31:42.251Z,100981.63
2023-04-02T16:34:32.982Z,100972.09
2023-04-02T16:37:38.273Z,100976.34
2023-04-02T16:40:20.200Z,100971.97
2023-04-02T16:42:59.025Z,100981.41
2023-04-02T16:46:03.296Z,100977.94
2023-04-02T16:48:44.466Z,100983.06
2023-04-02T16:51:26.449Z,100989.03
2023-04-02T16:54:10.713Z,100986.44
2023-04-02T16:56:56.242Z,100989.00
2023-04-02T16:59:54.358Z,100987.28
2023-04-02T17:02:50.021Z,100981.28
2023-04-02T17:05:42.808Z,100974.38
2023-04-02T17:08:27.102Z,100983.03
2023-04-02T17:11:02.081Z,100977.00
2023-04-02T17:13:54.173Z,100982.97
2023-04-02T17:16:41.163Z,100983.00
2023-04-02T17:19:16.109Z,100976.84
2023-04-02T17:21:47.185Z,100982.78
2023-04-02T17:24:17.199Z,100990.47
2023-04-02T17:26:48.339Z,100984.47
2023-04-02T17:29:25.682Z,100984.44
2023-04-02T17:31:55.168Z,100987.84
2023-04-02T17:34:23.936Z,100987.78
2023-04-02T17:37:27.796Z,100990.34
2023-04-02T17:40:00.319Z,100988.59
2023-04-02T17:42:51.859Z,100978.28
2023-04-02T17:45:21.555Z,100980.81
2023-04-02T17:48:07.083Z,100989.44
2023-04-02T17:50:42.600Z,100993.63
2023-04-02T17:53:21.786Z,100998.72
2023-04-02T17:56:17.570Z,101001.34
2023-04-02T17:58:50.024Z,101004.59
2023-04-02T18:01:22.825Z,101001.06
2023-04-02T18:04:13.631Z,100999.84
2023-04-02T18:06:59.148Z,101008.25
2023-04-02T18:09:37.896Z,101014.28
2023-04-02T18:12:04.778Z,101022.09
2023-04-02T18:14:46.826Z,101020.41
2023-04-02T18:17:48.033Z,101019.44
2023-04-02T18:20:21.110Z,101015.69
2023-04-02T18:23:01.239Z,101016.28
2023-04-02T18:25:37.071Z,101022.06
2023-04-02T18:28:45.677Z,101022.03
2023-04-02T18:31:35.481Z,101024.63
2023-04-02T18:34:02.276Z,101023.88
2023-04-02T18:37:05.363Z,101023.06
2023-04-02T18:39:50.578Z,101023.13
2023-04-02T18:42:51.979Z,101022.19
2023-04-02T18:45:18.747Z,101031.63
2023-04-02T18:48:05.015Z,101031.63
2023-04-02T18:50:39.382Z,101039.88
2023-04-02T18:53:18.715Z,101037.28
2023-04-02T18:55:52.811Z,101038.84
2023-04-02T18:58:49.496Z,101041.19
2023-04-02T19:01:22.721Z,101047.22
2023-04-02T19:03:53.165Z,101046.41
2023-04-02T19:06:52.604Z,101056.66
2023-04-02T19:09:25.728Z,101058.34
2023-04-02T19:11:55.732Z,101060.91
2023-04-02T19:14:26.115Z,101065.09
2023-04-02T19:17:05.394Z,101075.88
2023-04-02T19:19:38.425Z,101074.47
2023-04-02T19:22:35.645Z,101073.34
2023-04-02T19:25:27.546Z,101084.53
2023-04-02T19:28:18.330Z,101088.13
2023-04-02T19:31:17.823Z,101087.06
2023-04-02T19:33:50.649Z,101092.28
2023-04-02T19:36:32.139Z,101093.53
2023-04-02T19:39:23.621Z,101097.66
2023-04-02T19:41:54.397Z,101111.28
2023-04-02T19:44:22.075Z,101111.34
2023-04-02T19:46:51.595Z,101116.56
2023-04-02T19:49:25.905Z,101115.56
2023-04-02T19:51:53.724Z,101121.47
2023-04-02T19:54:20.912Z,101122.09
2023-04-02T19:56:48.492Z,101117.88
2023-04-02T19:59:17.935Z,101119.38
2023-04-02T20:01:46.988Z,101124.38
2023-04-02T20:04:15.338Z,101129.63
2023-04-02T20:06:42.730Z,101121.16
2023-04-02T20:09:10.344Z,101118.81
2023-04-02T20:11:38.302Z,101117.19
2023-04-02T20:14:05.957Z,101120.66
2023-04-02T20:16:33.985Z,101122.41
2023-04-02T20:19:01.177Z,101127.28
2023-04-02T20:21:28.090Z,101129.75
2023-04-02T20:23:56.096Z,101132.81
2023-04-02T20:26:23.390Z,101146.28
2023-04-02T20:28:50.789Z,101135.88
2023-04-02T20:31:18.907Z,101135.16
2023-04-02T20:33:46.720Z,101137.66
2023-04-02T20:36:30.828Z,101138.97
2023-04-02T20:38:59.038Z,101136.25
2023-04-02T20:41:26.855Z,101126.06
2023-04-02T20:43:53.902Z,101124.38
2023-04-02T20:46:20.886Z,101126.47
2023-04-02T20:48:48.165Z,101129.59
2023-04-02T20:51:15.974Z,101136.13
2023-04-02T20:53:42.873Z,101131.59
2023-04-02T20:56:15.757Z,101129.34
2023-04-02T20:58:43.570Z,101127.00
2023-04-02T21:01:19.473Z,101141.09
2023-04-02T21:03:46.930Z,101136.81
2023-04-02T21:06:21.326Z,101137.03
2023-04-02T21:08:49.619Z,101144.88
2023-04-02T21:11:17.417Z,101148.94
2023-04-02T21:13:44.645Z,101152.81
2023-04-02T21:16:14.323Z,101147.25
2023-04-02T21:18:41.182Z,101151.75
2023-04-02T21:21:08.509Z,101154.09
2023-04-02T21:23:35.309Z,101150.16
2023-04-02T21:26:06.218Z,101154.41
2023-04-02T21:28:33.581Z,101151.09
2023-04-02T21:31:15.050Z,101150.66
2023-04-02T21:33:44.990Z,101148.34
2023-04-02T21:36:21.773Z,101146.25
2023-04-02T21:38:51.617Z,101144.84
2023-04-02T21:41:20.867Z,101152.00
2023-04-02T21:43:48.429Z,101150.59
2023-04-02T21:46:16.586Z,101143.94
2023-04-02T21:48:43.649Z,101150.16
2023-04-02T21:51:12.830Z,101159.97
2023-04-02T21:53:41.019Z,101141.84
2023-04-02T21:56:11.700Z,101141.03
2023-04-02T21:58:38.580Z,101136.50
2023-04-02T22:01:09.080Z,101149.06
2023-04-02T22:03:41.153Z,101158.94
2023-04-02T22:06:13.244Z,101163.53
2023-04-02T22:08:41.577Z,101147.19
2023-04-02T22:11:12.654Z,101144.63
2023-04-02T22:13:41.707Z,101153.72
2023-04-02T22:16:11.938Z,101163.44
2023-04-02T22:18:39.324Z,101153.44
2023-04-02T22:21:06.457Z,101148.38
2023-04-02T22:23:34.099Z,101149.47
2023-04-02T22:26:01.802Z,101146.47
2023-04-02T22:28:29.264Z,101155.84
2023-04-02T22:30:56.422Z,101155.25
2023-04-02T22:33:23.247Z,101157.97
2023-04-02T22:35:51.829Z,101160.34
2023-04-02T22:38:19.400Z,101158.06
2023-04-02T22:40:46.235Z,101140.50
2023-04-02T22:43:13.011Z,101149.06
2023-04-02T22:45:39.860Z,101150.84
2023-04-02T22:48:06.911Z,101143.31
2023-04-02T22:50:33.745Z,101146.25
2023-04-02T22:53:01.366Z,101154.22
2023-04-02T22:55:28.393Z,101152.13
2023-04-02T22:57:55.601Z,101149.13
2023-04-02T23:00:23.159Z,101141.69
2023-04-02T23:02:49.950Z,101137.72
2023-04-02T23:05:17.072Z,101140.94
2023-04-02T23:07:43.898Z,101142.78
2023-04-02T23:10:11.081Z,101148.38
2023-04-02T23:12:37.830Z,101146.97
2023-04-02T23:15:05.633Z,101157.56
2023-04-02T23:17:32.432Z,101149.06
2023-04-02T23:19:59.076Z,101148.44
2023-04-02T23:22:25.867Z,101142.56
2023-04-02T23:24:54.632Z,101137.19
2023-04-02T23:27:22.555Z,101140.34
2023-04-02T23:29:50.181Z,101135.56
2023-04-02T23:32:17.940Z,101142.28
2023-04-02T23:34:44.760Z,101139.16
2023-04-02T23:37:11.636Z,101136.59
2023-04-02T23:39:38.587Z,101137.69
2023-04-02T23:42:05.656Z,101136.81
2023-04-02T23:44:32.464Z,101138.81
2023-04-02T23:46:59.861Z,101134.69
2023-04-02T23:49:27.144Z,101141.38
2023-04-02T23:51:54.301Z,101140.03
2023-04-02T23:54:21.144Z,101127.31
2023-04-02T23:56:48.014Z,101140.41
2023-04-02T23:59:14.690Z,101138.13
